createdAt,value
2018-05-12T00:00:05.333Z,0.00
2018-05-12T00:01:05.325Z,0.00
2018-05-12T00:02:05.318Z,0.00
2018-05-12T00:03:05.311Z,0.00
2018-05-12T00:04:05.302Z,0.00
2018-05-12T00:05:05.294Z,0.00
2018-05-12T00:06:05.286Z,0.00
2018-05-12T00:07:05.284Z,0.00
2018-05-12T00:08:05.270Z,0.00
2018-05-12T00:09:05.262Z,0.00
2018-05-12T00:10:05.255Z,0.00
2018-05-12T00:11:05.248Z,0.00
2018-05-12T00:12:05.239Z,0.00
2018-05-12T00:13:05.230Z,0.00
2018-05-12T00:14:05.223Z,0.00
2018-05-12T00:15:05.293Z,0.00
2018-05-12T00:16:05.207Z,0.00
2018-05-12T00:17:05.199Z,0.00
2018-05-12T00:18:05.191Z,0.00
2018-05-12T00:19:05.184Z,0.00
2018-05-12T00:20:05.175Z,0.00
2018-05-12T00:21:05.167Z,0.00
2018-05-12T00:22:05.159Z,0.00
2018-05-12T00:23:05.152Z,0.00
2018-05-12T00:24:05.144Z,0.00
2018-05-12T00:25:05.135Z,0.00
2018-05-12T00:26:05.129Z,0.00
2018-05-12T00:27:05.120Z,0.00
2018-05-12T00:28:05.112Z,0.00
2018-05-12T00:29:05.106Z,0.00
2018-05-12T00:30:05.095Z,0.00
2018-05-12T00:31:05.088Z,0.00
2018-05-12T00:32:05.080Z,0.00
2018-05-12T00:33:05.071Z,0.00
2018-05-12T00:34:05.064Z,0.00
2018-05-12T00:35:05.056Z,0.00
2018-05-12T00:36:05.048Z,0.00
2018-05-12T00:37:05.039Z,0.00
2018-05-12T00:38:05.032Z,0.00
2018-05-12T00:39:05.024Z,0.00
2018-05-12T00:40:05.016Z,0.00
2018-05-12T00:41:05.008Z,0.00
2018-05-12T00:42:05.005Z,0.00
2018-05-12T00:43:05.040Z,0.00
2018-05-12T00:44:04.984Z,0.00
2018-05-12T00:45:04.976Z,0.00
2018-05-12T00:46:04.968Z,0.00
2018-05-12T00:47:04.959Z,0.00
2018-05-12T00:48:04.952Z,0.00
2018-05-12T00:49:04.943Z,0.00
2018-05-12T00:50:04.936Z,0.00
2018-05-12T00:51:04.928Z,0.00
2018-05-12T00:52:04.920Z,0.00
2018-05-12T00:53:04.911Z,0.00
2018-05-12T00:54:04.903Z,0.00
2018-05-12T00:55:04.896Z,0.00
2018-05-12T00:56:04.888Z,0.00
2018-05-12T00:57:04.881Z,0.00
2018-05-12T00:58:04.872Z,0.00
2018-05-12T00:59:04.864Z,0.00
2018-05-12T01:00:04.856Z,0.00
2018-05-12T01:01:04.848Z,0.00
2018-05-12T01:02:04.840Z,0.00
2018-05-12T01:03:04.836Z,0.00
2018-05-12T01:04:04.824Z,0.00
2018-05-12T01:05:04.816Z,0.00
2018-05-12T01:06:04.808Z,0.00
2018-05-12T01:07:04.800Z,0.00
2018-05-12T01:08:04.793Z,0.00
2018-05-12T01:09:04.784Z,0.00
2018-05-12T01:10:04.777Z,0.00
2018-05-12T01:11:04.769Z,0.00
2018-05-12T01:12:04.761Z,0.00
2018-05-12T01:13:04.752Z,0.00
2018-05-12T01:14:04.745Z,0.00
2018-05-12T01:15:04.737Z,0.00
2018-05-12T01:16:04.729Z,0.00
2018-05-12T01:17:04.727Z,0.00
2018-05-12T01:18:04.713Z,0.00
2018-05-12T01:19:04.705Z,0.00
2018-05-12T01:20:04.697Z,0.00
2018-05-12T01:21:04.689Z,0.00
2018-05-12T01:22:04.681Z,0.00
2018-05-12T01:23:04.674Z,0.00
2018-05-12T01:24:04.667Z,0.00
2018-05-12T01:25:04.657Z,0.00
2018-05-12T01:26:04.653Z,0.00
2018-05-12T01:27:04.642Z,0.00
2018-05-12T01:28:04.638Z,0.00
2018-05-12T01:29:04.625Z,0.00
2018-05-12T01:30:04.618Z,0.00
2018-05-12T01:31:04.611Z,0.00
2018-05-12T01:32:04.603Z,0.00
2018-05-12T01:33:04.594Z,0.00
2018-05-12T01:34:04.586Z,0.00
2018-05-12T01:35:04.578Z,0.00
2018-05-12T01:36:04.570Z,0.00
2018-05-12T01:37:04.562Z,0.00
2018-05-12T01:38:04.554Z,0.00
2018-05-12T01:39:04.546Z,0.00
2018-05-12T01:40:04.539Z,0.00
2018-05-12T01:41:04.529Z,0.00
2018-05-12T01:42:04.521Z,0.00
2018-05-12T01:43:04.515Z,0.00
2018-05-12T01:44:04.507Z,0.00
2018-05-12T01:45:04.497Z,0.00
2018-05-12T01:46:04.490Z,0.00
2018-05-12T01:47:04.482Z,0.00
2018-05-12T01:48:04.474Z,0.00
2018-05-12T01:49:04.466Z,0.00
2018-05-12T01:50:04.456Z,0.00
2018-05-12T01:51:04.450Z,0.00
2018-05-12T01:52:04.441Z,0.00
2018-05-12T01:53:04.432Z,0.00
2018-05-12T01:54:04.424Z,0.00
2018-05-12T01:55:04.417Z,0.00
2018-05-12T01:56:04.409Z,0.00
2018-05-12T01:57:04.399Z,0.00
2018-05-12T01:58:04.392Z,0.00
2018-05-12T01:59:04.383Z,0.00
2018-05-12T02:00:04.376Z,0.00
2018-05-12T02:01:04.368Z,0.00
2018-05-12T02:02:04.359Z,0.00
2018-05-12T02:03:04.351Z,0.00
2018-05-12T02:04:04.344Z,0.00
2018-05-12T02:05:04.334Z,0.00
2018-05-12T02:06:04.326Z,0.00
2018-05-12T02:07:04.320Z,0.00
2018-05-12T02:08:04.311Z,0.00
2018-05-12T02:09:04.302Z,0.00
2018-05-12T02:10:04.294Z,0.00
2018-05-12T02:11:04.285Z,0.00
2018-05-12T02:12:04.277Z,0.00
2018-05-12T02:13:04.268Z,0.00
2018-05-12T02:14:04.261Z,0.00
2018-05-12T02:15:04.255Z,0.00
2018-05-12T02:16:04.245Z,0.00
2018-05-12T02:17:04.235Z,0.00
2018-05-12T02:18:04.230Z,0.00
2018-05-12T02:19:04.220Z,0.00
2018-05-12T02:20:04.299Z,0.00
2018-05-12T02:21:04.202Z,0.00
2018-05-12T02:22:04.194Z,0.00
2018-05-12T02:23:04.187Z,0.00
2018-05-12T02:24:04.178Z,0.00
2018-05-12T02:25:04.169Z,0.00
2018-05-12T02:26:04.161Z,0.00
2018-05-12T02:27:04.154Z,0.00
2018-05-12T02:28:04.146Z,0.00
2018-05-12T02:29:04.136Z,0.00
2018-05-12T02:30:04.129Z,0.00
2018-05-12T02:31:04.122Z,0.00
2018-05-12T02:32:04.112Z,0.00
2018-05-12T02:33:04.106Z,0.00
2018-05-12T02:34:04.095Z,0.00
2018-05-12T02:35:04.088Z,0.00
2018-05-12T02:36:04.079Z,0.00
2018-05-12T02:37:04.070Z,0.00
2018-05-12T02:38:04.062Z,0.00
2018-05-12T02:39:04.054Z,0.00
2018-05-12T02:40:04.046Z,0.00
2018-05-12T02:41:04.037Z,0.00
2018-05-12T02:42:04.028Z,0.00
2018-05-12T02:43:04.021Z,0.00
2018-05-12T02:44:04.013Z,0.00
2018-05-12T02:45:04.003Z,0.00
2018-05-12T02:46:04.002Z,0.00
2018-05-12T02:47:03.987Z,0.00
2018-05-12T02:48:03.979Z,0.00
2018-05-12T02:49:03.969Z,0.00
2018-05-12T02:50:03.962Z,0.00
2018-05-12T02:51:03.953Z,0.00
2018-05-12T02:52:03.949Z,0.00
2018-05-12T02:53:03.936Z,0.00
2018-05-12T02:54:03.927Z,0.00
2018-05-12T02:55:03.920Z,0.00
2018-05-12T02:56:03.915Z,0.00
2018-05-12T02:57:03.904Z,0.00
2018-05-12T02:58:03.903Z,0.00
2018-05-12T02:59:03.887Z,0.00
2018-05-12T03:00:03.879Z,0.00
2018-05-12T03:01:03.869Z,0.00
2018-05-12T03:02:03.872Z,0.00
2018-05-12T03:03:03.853Z,0.00
2018-05-12T03:04:03.849Z,0.00
2018-05-12T03:05:03.837Z,0.00
2018-05-12T03:06:03.828Z,0.00
2018-05-12T03:07:03.820Z,0.00
2018-05-12T03:08:03.811Z,0.00
2018-05-12T03:09:03.803Z,0.00
2018-05-12T03:10:03.794Z,0.00
2018-05-12T03:11:03.786Z,0.00
2018-05-12T03:12:03.778Z,0.00
2018-05-12T03:13:03.769Z,0.00
2018-05-12T03:14:03.762Z,0.00
2018-05-12T03:15:03.752Z,0.00
2018-05-12T03:16:03.745Z,0.00
2018-05-12T03:17:03.735Z,0.00
2018-05-12T03:18:03.726Z,0.00
2018-05-12T03:19:03.720Z,0.00
2018-05-12T03:20:03.713Z,0.00
2018-05-12T03:21:03.701Z,0.00
2018-05-12T03:22:03.693Z,0.00
2018-05-12T03:23:03.687Z,0.00
2018-05-12T03:24:03.677Z,0.00
2018-05-12T03:25:03.667Z,0.00
2018-05-12T03:26:03.659Z,0.00
2018-05-12T03:27:03.650Z,0.00
2018-05-12T03:28:03.642Z,0.00
2018-05-12T03:29:03.633Z,0.00
2018-05-12T03:30:03.625Z,0.00
2018-05-12T03:31:03.618Z,0.00
2018-05-12T03:32:03.608Z,0.00
2018-05-12T03:33:03.599Z,0.00
2018-05-12T03:34:03.590Z,0.00
2018-05-12T03:35:03.582Z,0.00
2018-05-12T03:36:03.576Z,0.00
2018-05-12T03:37:03.565Z,0.00
2018-05-12T03:38:03.556Z,0.00
2018-05-12T03:39:03.548Z,0.00
2018-05-12T03:40:03.540Z,0.00
2018-05-12T03:41:03.531Z,5.63
2018-05-12T03:42:03.522Z,5.63
2018-05-12T03:43:03.513Z,5.63
2018-05-12T03:44:03.506Z,5.63
2018-05-12T03:45:03.496Z,5.63
2018-05-12T03:46:03.488Z,5.63
2018-05-12T03:47:03.479Z,5.63
2018-05-12T03:48:03.471Z,5.63
2018-05-12T03:49:03.462Z,11.25
2018-05-12T03:50:03.453Z,11.25
2018-05-12T03:51:03.445Z,11.25
2018-05-12T03:52:03.437Z,11.25
2018-05-12T03:53:03.431Z,11.25
2018-05-12T03:54:03.419Z,11.25
2018-05-12T03:55:03.471Z,11.25
2018-05-12T03:56:03.402Z,11.25
2018-05-12T03:57:03.393Z,16.88
2018-05-12T03:58:03.385Z,16.88
2018-05-12T03:59:03.376Z,16.88
2018-05-12T04:00:03.454Z,16.88
2018-05-12T04:01:03.359Z,22.50
2018-05-12T04:02:03.351Z,22.50
2018-05-12T04:03:03.342Z,22.50
2018-05-12T04:04:03.334Z,22.50
2018-05-12T04:05:03.325Z,28.13
2018-05-12T04:06:03.316Z,28.13
2018-05-12T04:07:03.308Z,28.13
2018-05-12T04:08:03.300Z,33.75
2018-05-12T04:09:03.290Z,33.75
2018-05-12T04:10:03.281Z,33.75
2018-05-12T04:11:03.273Z,39.38
2018-05-12T04:12:03.265Z,39.38
2018-05-12T04:13:03.256Z,39.38
2018-05-12T04:14:03.248Z,45.00
2018-05-12T04:15:03.239Z,45.00
2018-05-12T04:16:03.231Z,45.00
2018-05-12T04:17:03.250Z,50.63
2018-05-12T04:18:03.213Z,50.63
2018-05-12T04:19:03.205Z,50.63
2018-05-12T04:20:03.197Z,56.25
2018-05-12T04:21:03.211Z,56.25
2018-05-12T04:22:03.179Z,56.25
2018-05-12T04:23:03.170Z,61.88
2018-05-12T04:24:03.163Z,61.88
2018-05-12T04:25:03.153Z,61.88
2018-05-12T04:26:03.145Z,67.50
2018-05-12T04:27:03.136Z,67.50
2018-05-12T04:28:03.128Z,67.50
2018-05-12T04:29:03.118Z,73.13
2018-05-12T04:30:03.110Z,73.13
2018-05-12T04:31:03.102Z,78.75
2018-05-12T04:32:03.094Z,78.75
2018-05-12T04:33:03.084Z,84.38
2018-05-12T04:34:03.076Z,90.00
2018-05-12T04:35:03.068Z,90.00
2018-05-12T04:36:03.059Z,95.63
2018-05-12T04:37:03.055Z,95.63
2018-05-12T04:38:03.041Z,101.25
2018-05-12T04:39:03.034Z,101.25
2018-05-12T04:40:03.025Z,101.25
2018-05-12T04:41:03.016Z,106.88
2018-05-12T04:42:03.070Z,106.88
2018-05-12T04:43:02.999Z,106.88
2018-05-12T04:44:02.991Z,106.88
2018-05-12T04:45:02.982Z,112.50
2018-05-12T04:46:02.972Z,112.50
2018-05-12T04:47:02.964Z,118.13
2018-05-12T04:48:02.956Z,123.75
2018-05-12T04:49:02.947Z,123.75
2018-05-12T04:50:02.938Z,123.75
2018-05-12T04:51:02.930Z,129.38
2018-05-12T04:52:02.921Z,135.00
2018-05-12T04:53:02.911Z,135.00
2018-05-12T04:54:02.904Z,140.63
2018-05-12T04:55:02.897Z,146.25
2018-05-12T04:56:02.887Z,151.88
2018-05-12T04:57:02.880Z,151.88
2018-05-12T04:58:02.869Z,157.50
2018-05-12T04:59:02.863Z,151.88
2018-05-12T05:00:02.853Z,157.50
2018-05-12T05:01:02.843Z,157.50
2018-05-12T05:02:02.836Z,163.13
2018-05-12T05:03:02.830Z,163.13
2018-05-12T05:04:02.820Z,168.75
2018-05-12T05:05:02.814Z,168.75
2018-05-12T05:06:02.803Z,174.38
2018-05-12T05:07:02.795Z,180.00
2018-05-12T05:08:02.788Z,185.63
2018-05-12T05:09:02.781Z,191.25
2018-05-12T05:10:02.771Z,196.88
2018-05-12T05:11:02.762Z,202.50
2018-05-12T05:12:02.762Z,202.50
2018-05-12T05:13:02.747Z,208.13
2018-05-12T05:14:02.737Z,213.75
2018-05-12T05:15:02.730Z,219.38
2018-05-12T05:16:02.722Z,225.00
2018-05-12T05:17:02.713Z,230.63
2018-05-12T05:18:02.705Z,236.25
2018-05-12T05:19:02.698Z,241.88
2018-05-12T05:20:02.692Z,247.50
2018-05-12T05:21:02.681Z,253.13
2018-05-12T05:22:02.674Z,258.75
2018-05-12T05:23:02.666Z,264.38
2018-05-12T05:24:02.659Z,270.00
2018-05-12T05:25:02.650Z,275.63
2018-05-12T05:26:02.643Z,275.63
2018-05-12T05:27:02.635Z,281.25
2018-05-12T05:28:02.628Z,286.88
2018-05-12T05:29:02.619Z,292.50
2018-05-12T05:30:02.612Z,298.13
2018-05-12T05:31:02.605Z,303.75
2018-05-12T05:32:02.598Z,303.75
2018-05-12T05:33:02.590Z,303.75
2018-05-12T05:34:02.583Z,320.63
2018-05-12T05:35:02.575Z,326.25
2018-05-12T05:36:02.572Z,337.50
2018-05-12T05:37:02.562Z,343.13
2018-05-12T05:38:02.555Z,348.75
2018-05-12T05:39:02.548Z,348.75
2018-05-12T05:40:02.541Z,354.38
2018-05-12T05:41:02.537Z,354.38
2018-05-12T05:42:02.525Z,365.63
2018-05-12T05:43:02.521Z,371.25
2018-05-12T05:44:02.514Z,376.88
2018-05-12T05:45:02.506Z,371.25
2018-05-12T05:46:02.499Z,382.50
2018-05-12T05:47:02.496Z,393.75
2018-05-12T05:48:02.487Z,405.00
2018-05-12T05:49:02.479Z,405.00
2018-05-12T05:50:02.473Z,416.25
2018-05-12T05:51:02.467Z,427.50
2018-05-12T05:52:02.462Z,421.88
2018-05-12T05:53:02.455Z,427.50
2018-05-12T05:54:02.449Z,438.75
2018-05-12T05:55:02.444Z,433.13
2018-05-12T05:56:02.438Z,438.75
2018-05-12T05:57:02.432Z,450.00
2018-05-12T05:58:02.427Z,450.00
2018-05-12T05:59:02.421Z,450.00
2018-05-12T06:00:02.417Z,455.63
2018-05-12T06:01:02.410Z,455.63
2018-05-12T06:02:02.407Z,461.25
2018-05-12T06:03:02.400Z,455.63
2018-05-12T06:04:02.400Z,450.00
2018-05-12T06:05:02.392Z,455.63
2018-05-12T06:06:02.388Z,455.63
2018-05-12T06:07:02.388Z,450.00
2018-05-12T06:08:02.380Z,444.38
2018-05-12T06:09:02.371Z,444.38
2018-05-12T06:10:02.365Z,450.00
2018-05-12T06:11:02.364Z,450.00
2018-05-12T06:12:02.358Z,450.00
2018-05-12T06:13:02.351Z,450.00
2018-05-12T06:14:02.348Z,444.38
2018-05-12T06:15:02.344Z,444.38
2018-05-12T06:16:02.343Z,450.00
2018-05-12T06:17:02.337Z,450.00
2018-05-12T06:18:02.346Z,450.00
2018-05-12T06:19:02.327Z,444.38
2018-05-12T06:20:02.322Z,450.00
2018-05-12T06:21:02.318Z,438.75
2018-05-12T06:22:02.315Z,444.38
2018-05-12T06:23:02.403Z,438.75
2018-05-12T06:24:02.306Z,444.38
2018-05-12T06:25:02.309Z,438.75
2018-05-12T06:26:02.298Z,433.13
2018-05-12T06:27:02.296Z,433.13
2018-05-12T06:28:02.297Z,427.50
2018-05-12T06:29:02.285Z,433.13
2018-05-12T06:30:02.282Z,433.13
2018-05-12T06:31:02.283Z,433.13
2018-05-12T06:32:02.275Z,444.38
2018-05-12T06:33:02.271Z,450.00
2018-05-12T06:34:02.267Z,450.00
2018-05-12T06:35:02.264Z,438.75
2018-05-12T06:36:02.261Z,421.88
2018-05-12T06:37:02.255Z,416.25
2018-05-12T06:38:02.254Z,410.63
2018-05-12T06:39:02.249Z,416.25
2018-05-12T06:40:02.245Z,410.63
2018-05-12T06:41:02.242Z,410.63
2018-05-12T06:42:02.237Z,405.00
2018-05-12T06:43:02.234Z,405.00
2018-05-12T06:44:02.233Z,416.25
2018-05-12T06:45:02.227Z,427.50
2018-05-12T06:46:02.224Z,444.38
2018-05-12T06:47:02.221Z,438.75
2018-05-12T06:48:02.223Z,455.63
2018-05-12T06:49:02.288Z,478.13
2018-05-12T06:50:02.212Z,483.75
2018-05-12T06:51:02.214Z,466.88
2018-05-12T06:52:02.205Z,472.50
2018-05-12T06:53:02.201Z,511.88
2018-05-12T06:54:02.204Z,528.75
2018-05-12T06:55:02.197Z,528.75
2018-05-12T06:56:02.196Z,438.75
2018-05-12T06:57:02.189Z,438.75
2018-05-12T06:58:02.187Z,438.75
2018-05-12T06:59:02.185Z,455.63
2018-05-12T07:00:02.183Z,585.00
2018-05-12T07:01:02.180Z,787.50
2018-05-12T07:02:02.178Z,658.13
2018-05-12T07:03:02.175Z,545.63
2018-05-12T07:04:02.174Z,680.63
2018-05-12T07:05:02.171Z,877.50
2018-05-12T07:06:02.170Z,1136.25
2018-05-12T07:07:02.168Z,1153.13
2018-05-12T07:08:02.168Z,945.00
2018-05-12T07:09:02.169Z,1153.13
2018-05-12T07:10:02.165Z,1485.00
2018-05-12T07:11:02.165Z,1181.25
2018-05-12T07:12:02.165Z,1760.63
2018-05-12T07:13:02.193Z,1850.63
2018-05-12T07:14:02.165Z,2025.00
2018-05-12T07:15:02.173Z,2086.88
2018-05-12T07:16:02.168Z,2008.13
2018-05-12T07:17:02.169Z,1923.75
2018-05-12T07:18:02.174Z,1591.88
2018-05-12T07:19:02.175Z,1985.63
2018-05-12T07:20:02.179Z,1524.38
2018-05-12T07:21:02.184Z,1873.13
2018-05-12T07:22:02.186Z,1766.25
2018-05-12T07:23:02.191Z,1923.75
2018-05-12T07:24:02.196Z,1929.38
2018-05-12T07:25:02.200Z,1963.13
2018-05-12T07:26:02.206Z,2131.88
2018-05-12T07:27:02.211Z,2160.00
2018-05-12T07:28:02.217Z,2278.13
2018-05-12T07:29:02.226Z,2255.63
2018-05-12T07:30:02.229Z,2328.75
2018-05-12T07:31:02.236Z,2255.63
2018-05-12T07:32:02.245Z,2070.00
2018-05-12T07:33:02.250Z,2103.75
2018-05-12T07:34:02.259Z,2002.50
2018-05-12T07:35:02.267Z,1878.75
2018-05-12T07:36:02.271Z,1704.38
2018-05-12T07:37:02.284Z,1260.00
2018-05-12T07:38:02.284Z,1350.00
2018-05-12T07:39:02.378Z,1417.50
2018-05-12T07:40:02.299Z,1710.00
2018-05-12T07:41:02.305Z,1884.38
2018-05-12T07:42:02.313Z,2115.00
2018-05-12T07:43:02.319Z,2137.50
2018-05-12T07:44:02.326Z,2323.13
2018-05-12T07:45:02.407Z,2677.50
2018-05-12T07:46:02.341Z,2576.25
2018-05-12T07:47:02.348Z,2441.25
2018-05-12T07:48:02.356Z,2598.75
2018-05-12T07:49:02.364Z,2671.88
2018-05-12T07:50:02.379Z,2036.25
2018-05-12T07:51:02.381Z,2098.13
2018-05-12T07:52:02.390Z,2070.00
2018-05-12T07:53:02.400Z,2660.63
2018-05-12T07:54:02.423Z,2446.88
2018-05-12T07:55:02.417Z,2148.75
2018-05-12T07:56:02.427Z,2008.13
2018-05-12T07:57:02.501Z,2064.38
2018-05-12T07:58:02.444Z,2216.25
2018-05-12T07:59:02.455Z,2351.25
2018-05-12T08:00:02.464Z,2036.25
2018-05-12T08:01:02.472Z,1642.50
2018-05-12T08:02:02.482Z,1839.38
2018-05-12T08:03:02.491Z,1856.25
2018-05-12T08:04:02.499Z,2064.38
2018-05-12T08:05:02.508Z,2576.25
2018-05-12T08:06:02.517Z,2728.13
2018-05-12T08:07:02.528Z,2626.88
2018-05-12T08:08:02.536Z,2261.25
2018-05-12T08:09:02.544Z,2070.00
2018-05-12T08:10:02.554Z,1726.88
2018-05-12T08:11:02.563Z,2103.75
2018-05-12T08:12:02.573Z,2480.63
2018-05-12T08:13:02.582Z,2553.75
2018-05-12T08:14:02.594Z,2610.00
2018-05-12T08:15:02.606Z,2593.13
2018-05-12T08:16:02.613Z,2818.13
2018-05-12T08:17:02.626Z,2812.50
2018-05-12T08:18:02.632Z,3026.25
2018-05-12T08:19:02.643Z,2604.38
2018-05-12T08:20:02.657Z,2598.75
2018-05-12T08:21:02.665Z,2160.00
2018-05-12T08:22:02.675Z,2025.00
2018-05-12T08:23:02.687Z,2261.25
2018-05-12T08:24:02.698Z,2390.63
2018-05-12T08:25:02.708Z,2424.38
2018-05-12T08:26:02.767Z,2272.50
2018-05-12T08:27:02.729Z,2334.38
2018-05-12T08:28:02.741Z,2328.75
2018-05-12T08:29:02.750Z,2446.88
2018-05-12T08:30:02.810Z,2413.13
2018-05-12T08:31:02.772Z,2514.38
2018-05-12T08:32:02.783Z,2570.63
2018-05-12T08:33:02.798Z,2756.25
2018-05-12T08:34:02.804Z,2655.00
2018-05-12T08:35:02.815Z,2452.50
2018-05-12T08:36:02.828Z,2694.38
2018-05-12T08:37:02.841Z,2671.88
2018-05-12T08:38:02.848Z,2863.13
2018-05-12T08:39:02.860Z,2992.50
2018-05-12T08:40:02.872Z,2745.00
2018-05-12T08:41:02.882Z,2683.13
2018-05-12T08:42:02.897Z,2626.88
2018-05-12T08:43:02.907Z,2486.25
2018-05-12T08:44:02.919Z,2413.13
2018-05-12T08:45:02.930Z,2345.63
2018-05-12T08:46:02.942Z,2390.63
2018-05-12T08:47:02.954Z,2199.38
2018-05-12T08:48:02.965Z,2767.50
2018-05-12T08:49:02.976Z,2784.38
2018-05-12T08:50:02.988Z,2941.88
2018-05-12T08:51:02.999Z,2525.63
2018-05-12T08:52:03.013Z,2671.88
2018-05-12T08:53:03.021Z,2666.25
2018-05-12T08:54:03.033Z,2761.88
2018-05-12T08:55:03.042Z,2947.50
2018-05-12T08:56:03.055Z,2891.25
2018-05-12T08:57:03.062Z,2958.75
2018-05-12T08:58:03.075Z,2902.50
2018-05-12T08:59:03.084Z,3060.00
2018-05-12T09:00:03.146Z,3217.50
2018-05-12T09:01:03.106Z,3031.88
2018-05-12T09:02:03.120Z,2964.38
2018-05-12T09:03:03.131Z,2570.63
2018-05-12T09:04:03.143Z,2193.75
2018-05-12T09:05:03.154Z,2626.88
2018-05-12T09:06:03.166Z,2958.75
2018-05-12T09:07:03.178Z,2925.00
2018-05-12T09:08:03.189Z,2739.38
2018-05-12T09:09:03.200Z,2722.50
2018-05-12T09:10:03.212Z,2070.00
2018-05-12T09:11:03.225Z,2700.00
2018-05-12T09:12:03.240Z,2469.38
2018-05-12T09:13:03.248Z,2075.63
2018-05-12T09:14:03.260Z,2002.50
2018-05-12T09:15:03.272Z,2311.88
2018-05-12T09:16:03.287Z,2295.00
2018-05-12T09:17:03.293Z,2255.63
2018-05-12T09:18:03.306Z,2250.00
2018-05-12T09:19:03.341Z,2430.00
2018-05-12T09:20:03.328Z,2435.63
2018-05-12T09:21:03.347Z,2396.25
2018-05-12T09:22:03.349Z,2446.88
2018-05-12T09:23:03.361Z,2525.63
2018-05-12T09:24:03.372Z,2638.13
2018-05-12T09:25:03.381Z,2671.88
2018-05-12T09:26:03.392Z,2632.50
2018-05-12T09:27:03.403Z,2581.88
2018-05-12T09:28:03.415Z,2576.25
2018-05-12T09:29:03.425Z,2407.50
2018-05-12T09:30:03.437Z,2491.88
2018-05-12T09:31:03.452Z,2053.13
2018-05-12T09:32:03.460Z,2295.00
2018-05-12T09:33:03.471Z,2188.13
2018-05-12T09:34:03.482Z,1968.75
2018-05-12T09:35:03.493Z,2300.63
2018-05-12T09:36:03.507Z,2441.25
2018-05-12T09:37:03.515Z,2373.75
2018-05-12T09:38:03.525Z,2328.75
2018-05-12T09:39:03.536Z,2452.50
2018-05-12T09:40:03.546Z,2221.88
2018-05-12T09:41:03.557Z,1878.75
2018-05-12T09:42:03.568Z,2171.25
2018-05-12T09:43:03.577Z,2283.75
2018-05-12T09:44:03.588Z,2311.88
2018-05-12T09:45:03.599Z,2441.25
2018-05-12T09:46:03.614Z,2379.38
2018-05-12T09:47:03.623Z,2345.63
2018-05-12T09:48:03.629Z,2266.88
2018-05-12T09:49:03.639Z,2131.88
2018-05-12T09:50:03.650Z,2272.50
2018-05-12T09:51:03.661Z,2401.88
2018-05-12T09:52:03.672Z,2548.13
2018-05-12T09:53:03.682Z,2649.38
2018-05-12T09:54:03.692Z,2565.00
2018-05-12T09:55:03.704Z,2525.63
2018-05-12T09:56:03.714Z,2525.63
2018-05-12T09:57:03.724Z,2340.00
2018-05-12T09:58:03.736Z,2351.25
2018-05-12T09:59:03.748Z,2317.50
2018-05-12T10:00:03.759Z,2255.63
2018-05-12T10:01:03.769Z,2351.25
2018-05-12T10:02:03.784Z,2311.88
2018-05-12T10:03:03.792Z,2272.50
2018-05-12T10:04:03.804Z,2098.13
2018-05-12T10:05:03.818Z,2103.75
2018-05-12T10:06:03.827Z,2013.75
2018-05-12T10:07:03.838Z,2238.75
2018-05-12T10:08:03.852Z,2283.75
2018-05-12T10:09:03.864Z,2317.50
2018-05-12T10:10:03.873Z,2643.75
2018-05-12T10:11:03.885Z,2531.25
2018-05-12T10:12:03.896Z,2531.25
2018-05-12T10:13:03.907Z,2525.63
2018-05-12T10:14:03.919Z,2238.75
2018-05-12T10:15:03.932Z,2036.25
2018-05-12T10:16:03.944Z,2002.50
2018-05-12T10:17:03.957Z,2418.75
2018-05-12T10:18:03.965Z,2660.63
2018-05-12T10:19:03.978Z,2278.13
2018-05-12T10:20:03.990Z,2666.25
2018-05-12T10:21:03.999Z,2441.25
2018-05-12T10:22:04.011Z,2396.25
2018-05-12T10:23:04.022Z,2205.00
2018-05-12T10:24:04.034Z,2390.63
2018-05-12T10:25:04.045Z,2345.63
2018-05-12T10:26:04.084Z,2238.75
2018-05-12T10:27:04.067Z,2137.50
2018-05-12T10:28:04.078Z,2086.88
2018-05-12T10:29:04.088Z,2261.25
2018-05-12T10:30:04.099Z,2210.63
2018-05-12T10:31:04.111Z,2244.38
2018-05-12T10:32:04.122Z,2255.63
2018-05-12T10:33:04.132Z,2143.13
2018-05-12T10:34:04.143Z,2053.13
2018-05-12T10:35:04.155Z,2019.38
2018-05-12T10:36:04.168Z,2126.25
2018-05-12T10:37:04.177Z,2238.75
2018-05-12T10:38:04.187Z,2362.50
2018-05-12T10:39:04.199Z,2081.25
2018-05-12T10:40:04.212Z,1974.38
2018-05-12T10:41:04.220Z,1867.50
2018-05-12T10:42:04.231Z,1816.88
2018-05-12T10:43:04.243Z,1749.38
2018-05-12T10:44:04.252Z,1940.63
2018-05-12T10:45:04.261Z,2098.13
2018-05-12T10:46:04.272Z,2171.25
2018-05-12T10:47:04.283Z,2199.38
2018-05-12T10:48:04.293Z,2160.00
2018-05-12T10:49:04.304Z,1963.13
2018-05-12T10:50:04.313Z,1923.75
2018-05-12T10:51:04.324Z,1923.75
2018-05-12T10:52:04.337Z,1811.25
2018-05-12T10:53:04.344Z,1698.75
2018-05-12T10:54:04.354Z,1839.38
2018-05-12T10:55:04.365Z,2036.25
2018-05-12T10:56:04.374Z,2047.50
2018-05-12T10:57:04.385Z,1856.25
2018-05-12T10:58:04.395Z,2070.00
2018-05-12T10:59:04.402Z,1951.88
2018-05-12T11:00:04.412Z,1648.13
2018-05-12T11:01:04.420Z,1906.88
2018-05-12T11:02:04.430Z,2171.25
2018-05-12T11:03:04.439Z,2283.75
2018-05-12T11:04:04.448Z,2677.50
2018-05-12T11:05:04.456Z,2604.38
2018-05-12T11:06:04.466Z,2559.38
2018-05-12T11:07:04.477Z,2486.25
2018-05-12T11:08:04.490Z,2536.88
2018-05-12T11:09:04.496Z,2463.75
2018-05-12T11:10:04.507Z,2182.50
2018-05-12T11:11:04.518Z,2160.00
2018-05-12T11:12:04.530Z,2205.00
2018-05-12T11:13:04.539Z,2182.50
2018-05-12T11:14:04.550Z,2176.88
2018-05-12T11:15:04.561Z,2064.38
2018-05-12T11:16:04.691Z,1929.38
2018-05-12T11:17:04.582Z,2041.88
2018-05-12T11:18:04.592Z,2098.13
2018-05-12T11:19:04.603Z,2255.63
2018-05-12T11:20:04.614Z,2446.88
2018-05-12T11:21:04.630Z,2435.63
2018-05-12T11:22:04.634Z,2328.75
2018-05-12T11:23:04.645Z,2430.00
2018-05-12T11:24:04.656Z,2773.13
2018-05-12T11:25:04.666Z,2660.63
2018-05-12T11:26:04.679Z,2570.63
2018-05-12T11:27:04.689Z,2446.88
2018-05-12T11:28:04.701Z,2300.63
2018-05-12T11:29:04.711Z,2655.00
2018-05-12T11:30:04.724Z,2700.00
2018-05-12T11:31:04.735Z,2475.00
2018-05-12T11:32:04.801Z,2604.38
2018-05-12T11:33:04.758Z,3065.63
2018-05-12T11:34:04.771Z,3015.00
2018-05-12T11:35:04.783Z,3026.25
2018-05-12T11:36:04.794Z,2902.50
2018-05-12T11:37:04.806Z,2925.00
2018-05-12T11:38:04.818Z,2711.25
2018-05-12T11:39:04.831Z,2874.38
2018-05-12T11:40:04.843Z,2857.50
2018-05-12T11:41:04.856Z,2773.13
2018-05-12T11:42:04.869Z,2835.00
2018-05-12T11:43:04.883Z,2874.38
2018-05-12T11:44:04.895Z,3076.88
2018-05-12T11:45:04.908Z,3065.63
2018-05-12T11:46:04.921Z,3088.13
2018-05-12T11:47:04.937Z,3110.63
2018-05-12T11:48:04.950Z,2981.25
2018-05-12T11:49:04.963Z,3048.75
2018-05-12T11:50:04.979Z,2542.50
2018-05-12T11:51:04.993Z,2711.25
2018-05-12T11:52:05.011Z,2806.88
2018-05-12T11:53:05.020Z,3026.25
2018-05-12T11:54:05.136Z,2953.13
2018-05-12T11:55:05.149Z,3161.25
2018-05-12T11:56:05.066Z,2745.00
2018-05-12T11:57:05.075Z,3088.13
2018-05-12T11:58:05.093Z,3256.88
2018-05-12T11:59:05.103Z,2773.13
2018-05-12T12:00:05.116Z,2463.75
2018-05-12T12:01:05.132Z,2491.88
2018-05-12T12:02:05.142Z,2992.50
2018-05-12T12:03:05.156Z,2396.25
2018-05-12T12:04:05.169Z,2801.25
2018-05-12T12:05:05.185Z,2272.50
2018-05-12T12:06:05.196Z,2396.25
2018-05-12T12:07:05.208Z,2908.13
2018-05-12T12:08:05.220Z,2750.63
2018-05-12T12:09:05.232Z,3172.50
2018-05-12T12:10:05.245Z,2953.13
2018-05-12T12:11:05.261Z,3043.13
2018-05-12T12:12:05.271Z,2874.38
2018-05-12T12:13:05.284Z,2936.25
2018-05-12T12:14:05.297Z,2621.25
2018-05-12T12:15:05.311Z,3020.63
2018-05-12T12:16:05.326Z,3110.63
2018-05-12T12:17:05.342Z,2919.38
2018-05-12T12:18:05.349Z,3211.88
2018-05-12T12:19:05.366Z,3279.38
2018-05-12T12:20:05.377Z,2716.88
2018-05-12T12:21:05.390Z,3178.13
2018-05-12T12:22:05.404Z,2981.25
2018-05-12T12:23:05.415Z,3043.13
2018-05-12T12:24:05.430Z,2722.50
2018-05-12T12:25:05.440Z,3009.38
2018-05-12T12:26:05.455Z,3037.50
2018-05-12T12:27:05.467Z,2790.00
2018-05-12T12:28:05.480Z,2773.13
2018-05-12T12:29:05.496Z,2953.13
2018-05-12T12:30:05.507Z,3071.25
2018-05-12T12:31:05.520Z,2896.88
2018-05-12T12:32:05.534Z,2840.63
2018-05-12T12:33:05.553Z,2970.00
2018-05-12T12:34:05.564Z,2947.50